createdAt,value
2022-07-29T00:00:47.365Z,44.63
2022-07-29T00:02:50.929Z,44.64
2022-07-29T00:04:55.884Z,44.56
2022-07-29T00:06:59.419Z,44.98
2022-07-29T00:09:02.927Z,45.26
2022-07-29T00:11:06.476Z,45.18
2022-07-29T00:13:10.021Z,45.42
2022-07-29T00:15:13.685Z,46.10
2022-07-29T00:17:19.167Z,46.04
2022-07-29T00:19:22.695Z,46.07
2022-07-29T00:21:28.190Z,46.23
2022-07-29T00:23:33.794Z,46.38
2022-07-29T00:25:40.404Z,46.48
2022-07-29T00:27:44.115Z,46.73
2022-07-29T00:29:47.696Z,46.16
2022-07-29T00:31:51.351Z,46.42
2022-07-29T00:33:55.067Z,46.50
2022-07-29T00:35:57.587Z,46.35
2022-07-29T00:38:02.559Z,46.28
2022-07-29T00:40:07.055Z,47.18
2022-07-29T00:42:10.806Z,46.90
2022-07-29T00:44:14.768Z,47.00
2022-07-29T00:46:18.634Z,47.36
2022-07-29T00:48:22.242Z,47.49
2022-07-29T00:50:29.016Z,47.69
2022-07-29T00:52:32.816Z,47.37
2022-07-29T00:54:39.161Z,47.65
2022-07-29T00:56:47.528Z,47.64
2022-07-29T00:58:53.566Z,47.43
2022-07-29T01:00:57.171Z,48.49
2022-07-29T01:03:01.508Z,48.30
2022-07-29T01:05:07.263Z,49.07
2022-07-29T01:07:12.120Z,49.16
2022-07-29T01:09:16.169Z,49.08
2022-07-29T01:11:41.707Z,48.84
2022-07-29T01:13:45.771Z,48.68
2022-07-29T01:15:55.988Z,49.26
2022-07-29T01:18:05.910Z,48.79
2022-07-29T01:20:14.929Z,48.93
2022-07-29T01:22:29.783Z,49.47
2022-07-29T01:24:55.053Z,49.33
2022-07-29T01:27:05.976Z,50.08
2022-07-29T01:29:25.627Z,50.63
2022-07-29T01:31:49.144Z,50.98
2022-07-29T01:34:05.921Z,51.22
2022-07-29T01:36:14.052Z,50.92
2022-07-29T01:38:23.133Z,51.01
2022-07-29T01:40:30.717Z,51.31
2022-07-29T01:42:37.928Z,50.70
2022-07-29T01:44:50.488Z,51.24
2022-07-29T01:46:58.158Z,50.98
2022-07-29T01:49:10.733Z,51.03
2022-07-29T01:51:18.936Z,51.72
2022-07-29T01:53:37.666Z,52.04
2022-07-29T01:55:45.344Z,52.50
2022-07-29T01:57:50.759Z,52.00
2022-07-29T01:59:58.051Z,52.04
2022-07-29T02:02:03.512Z,51.53
2022-07-29T02:04:10.783Z,51.37
2022-07-29T02:06:17.652Z,51.19
2022-07-29T02:08:22.079Z,51.20
2022-07-29T02:10:29.737Z,51.63
2022-07-29T02:12:36.535Z,51.66
2022-07-29T02:14:45.460Z,51.69
2022-07-29T02:16:53.936Z,51.39
2022-07-29T02:19:00.022Z,51.23
2022-07-29T02:21:05.168Z,51.45
2022-07-29T02:23:11.425Z,51.09
2022-07-29T02:25:17.526Z,51.47
2022-07-29T02:27:22.607Z,51.77
2022-07-29T02:29:29.121Z,52.27
2022-07-29T02:31:35.703Z,52.24
2022-07-29T02:33:42.617Z,52.02
2022-07-29T02:35:48.223Z,52.47
2022-07-29T02:38:07.159Z,52.32
2022-07-29T02:40:13.417Z,52.66
2022-07-29T02:42:19.453Z,52.60
2022-07-29T02:44:28.106Z,53.02
2022-07-29T02:46:37.802Z,52.39
2022-07-29T02:48:50.858Z,52.26
2022-07-29T02:51:03.782Z,52.32
2022-07-29T02:53:11.147Z,52.16
2022-07-29T02:55:21.330Z,52.45
2022-07-29T02:57:32.363Z,52.85
2022-07-29T02:59:39.366Z,52.88
2022-07-29T03:01:45.913Z,53.14
2022-07-29T03:03:53.021Z,53.42
2022-07-29T03:05:58.808Z,54.70
2022-07-29T03:08:05.378Z,54.75
2022-07-29T03:10:11.097Z,54.99
2022-07-29T03:12:18.469Z,54.64
2022-07-29T03:14:23.967Z,53.84
2022-07-29T03:16:28.025Z,53.52
2022-07-29T03:18:32.986Z,53.34
2022-07-29T03:20:39.628Z,52.98
2022-07-29T03:22:44.818Z,52.46
2022-07-29T03:24:48.444Z,52.36
2022-07-29T03:26:52.187Z,52.40
2022-07-29T03:28:56.943Z,52.01
2022-07-29T03:31:00.478Z,52.19
2022-07-29T03:33:05.230Z,52.10
2022-07-29T03:35:17.534Z,52.13
2022-07-29T03:37:22.411Z,52.18
2022-07-29T03:39:29.678Z,52.65
2022-07-29T03:41:34.750Z,52.43
2022-07-29T03:43:49.716Z,52.24
2022-07-29T03:45:56.442Z,51.81
2022-07-29T03:48:04.218Z,51.64
2022-07-29T03:50:10.907Z,51.55
2022-07-29T03:52:14.677Z,51.32
2022-07-29T03:54:21.159Z,51.37
2022-07-29T03:56:26.622Z,51.15
2022-07-29T03:58:32.558Z,50.88
2022-07-29T04:00:37.127Z,51.09
2022-07-29T04:02:41.978Z,51.09
2022-07-29T04:04:45.654Z,51.03
2022-07-29T04:06:49.392Z,51.19
2022-07-29T04:08:52.911Z,51.39
2022-07-29T04:10:57.869Z,51.26
2022-07-29T04:13:01.864Z,51.06
2022-07-29T04:15:08.907Z,51.05
2022-07-29T04:17:13.320Z,51.01
2022-07-29T04:19:16.899Z,51.22
2022-07-29T04:21:20.415Z,51.64
2022-07-29T04:23:23.852Z,51.42
2022-07-29T04:25:27.357Z,51.27
2022-07-29T04:27:32.333Z,51.81
2022-07-29T04:29:35.808Z,52.23
2022-07-29T04:31:39.469Z,52.02
2022-07-29T04:33:43.051Z,52.16
2022-07-29T04:35:49.914Z,52.08
2022-07-29T04:37:56.225Z,52.27
2022-07-29T04:39:59.726Z,52.36
2022-07-29T04:42:03.295Z,52.03
2022-07-29T04:44:08.800Z,52.64
2022-07-29T04:46:12.452Z,52.01
2022-07-29T04:48:16.119Z,51.82
2022-07-29T04:50:19.668Z,51.69
2022-07-29T04:52:23.207Z,51.55
2022-07-29T04:54:27.254Z,51.11
2022-07-29T04:56:31.054Z,51.18
2022-07-29T04:58:36.760Z,51.29
2022-07-29T05:00:42.100Z,50.97
2022-07-29T05:02:45.716Z,50.97
2022-07-29T05:04:49.536Z,51.02
2022-07-29T05:06:52.989Z,50.85
2022-07-29T05:08:56.483Z,51.03
2022-07-29T05:11:11.785Z,51.11
2022-07-29T05:13:16.094Z,50.99
2022-07-29T05:15:19.815Z,51.26
2022-07-29T05:17:24.713Z,51.14
2022-07-29T05:19:28.252Z,50.63
2022-07-29T05:21:31.720Z,50.70
2022-07-29T05:23:35.207Z,50.83
2022-07-29T05:25:43.652Z,50.95
2022-07-29T05:27:48.297Z,50.98
2022-07-29T05:29:54.706Z,50.77
2022-07-29T05:31:58.174Z,50.72
2022-07-29T05:34:03.552Z,51.32
2022-07-29T05:36:08.026Z,50.94
2022-07-29T05:38:11.899Z,50.82
2022-07-29T05:40:15.610Z,51.08
2022-07-29T05:42:19.239Z,50.78
2022-07-29T05:44:25.420Z,50.58
2022-07-29T05:46:29.150Z,50.58
2022-07-29T05:48:33.269Z,50.59
2022-07-29T05:50:38.147Z,50.63
2022-07-29T05:52:51.573Z,50.55
2022-07-29T05:54:55.513Z,50.69
2022-07-29T05:56:59.108Z,50.68
2022-07-29T05:59:02.666Z,50.84
2022-07-29T06:01:06.443Z,50.50
2022-07-29T06:03:10.031Z,50.17
2022-07-29T06:05:17.119Z,50.83
2022-07-29T06:07:22.260Z,50.34
2022-07-29T06:09:26.921Z,50.47
2022-07-29T06:11:30.487Z,50.26
2022-07-29T06:13:34.157Z,50.39
2022-07-29T06:15:37.690Z,51.37
2022-07-29T06:18:00.222Z,51.60
2022-07-29T06:20:07.450Z,50.09
2022-07-29T06:22:11.181Z,49.51
2022-07-29T06:24:17.539Z,50.54
2022-07-29T06:26:30.773Z,50.92
2022-07-29T06:28:35.550Z,52.18
2022-07-29T06:30:39.308Z,50.52
2022-07-29T06:32:43.889Z,50.29
2022-07-29T06:34:48.939Z,48.70
2022-07-29T06:36:53.778Z,49.30
2022-07-29T06:38:57.748Z,49.58
2022-07-29T06:41:02.880Z,50.02
2022-07-29T06:43:07.126Z,49.01
2022-07-29T06:45:11.641Z,49.24
2022-07-29T06:47:15.185Z,49.65
2022-07-29T06:49:18.824Z,50.31
2022-07-29T06:51:23.819Z,50.75
2022-07-29T06:53:29.005Z,50.36
2022-07-29T06:55:32.825Z,50.98
2022-07-29T06:57:37.949Z,49.59
2022-07-29T06:59:41.497Z,50.46
2022-07-29T07:01:45.501Z,50.19
2022-07-29T07:03:49.082Z,50.06
2022-07-29T07:05:54.387Z,49.94
2022-07-29T07:07:57.895Z,48.21
2022-07-29T07:10:01.361Z,49.37
2022-07-29T07:12:05.374Z,49.97
2022-07-29T07:14:10.329Z,50.46
2022-07-29T07:16:13.916Z,50.03
2022-07-29T07:18:17.898Z,51.14
2022-07-29T07:20:22.052Z,52.57
2022-07-29T07:22:28.940Z,52.88
2022-07-29T07:24:32.453Z,53.02
2022-07-29T07:26:35.963Z,53.86
2022-07-29T07:28:39.506Z,54.38
2022-07-29T07:30:44.541Z,54.72
2022-07-29T07:32:48.100Z,56.13
2022-07-29T07:34:51.622Z,56.94
2022-07-29T07:36:55.167Z,55.48
2022-07-29T07:38:58.744Z,56.11
2022-07-29T07:41:02.735Z,56.02
2022-07-29T07:43:06.374Z,57.22
2022-07-29T07:45:15.857Z,57.81
2022-07-29T07:47:24.476Z,58.14
2022-07-29T07:49:31.657Z,57.35
2022-07-29T07:51:35.196Z,56.58
2022-07-29T07:53:38.836Z,58.02
2022-07-29T07:56:09.364Z,58.94
2022-07-29T07:58:08.328Z,59.93
2022-07-29T08:00:12.794Z,60.64
2022-07-29T08:02:16.786Z,61.56
2022-07-29T08:04:27.103Z,62.01
2022-07-29T08:06:31.522Z,60.71
2022-07-29T08:08:35.056Z,60.91
2022-07-29T08:10:57.816Z,60.82
2022-07-29T08:13:04.267Z,60.58
2022-07-29T08:15:09.460Z,61.29
2022-07-29T08:17:13.018Z,61.16
2022-07-29T08:19:16.575Z,61.47
2022-07-29T08:21:21.454Z,61.04
2022-07-29T08:23:25.408Z,60.80
2022-07-29T08:25:29.265Z,60.91
2022-07-29T08:27:43.505Z,60.24
2022-07-29T08:29:47.691Z,60.40
2022-07-29T08:31:51.533Z,59.91
2022-07-29T08:33:57.120Z,60.14
2022-07-29T08:36:01.007Z,59.51
2022-07-29T08:38:05.905Z,59.36
2022-07-29T08:40:10.145Z,59.55
2022-07-29T08:42:14.326Z,59.80
2022-07-29T08:44:18.155Z,59.91
2022-07-29T08:46:34.043Z,60.75
2022-07-29T08:48:38.667Z,61.64
2022-07-29T08:50:43.193Z,61.69
2022-07-29T08:52:55.407Z,62.04
2022-07-29T08:55:03.360Z,61.52
2022-07-29T08:57:07.329Z,61.43
2022-07-29T08:59:14.417Z,61.60
2022-07-29T09:01:23.351Z,62.33
2022-07-29T09:03:42.258Z,61.76
2022-07-29T09:05:48.303Z,62.15
2022-07-29T09:07:52.335Z,61.88
2022-07-29T09:09:56.099Z,62.85
2022-07-29T09:12:01.259Z,62.45
2022-07-29T09:14:04.942Z,62.77
2022-07-29T09:16:09.695Z,63.01
2022-07-29T09:18:20.670Z,62.77
2022-07-29T09:20:48.489Z,62.58
2022-07-29T09:22:54.090Z,63.39
2022-07-29T09:24:57.693Z,63.35
2022-07-29T09:27:02.987Z,64.13
2022-07-29T09:29:12.966Z,63.94
2022-07-29T09:31:16.612Z,63.59
2022-07-29T09:33:20.973Z,63.24
2022-07-29T09:35:26.861Z,63.13
2022-07-29T09:37:30.799Z,63.15
2022-07-29T09:39:35.717Z,62.94
2022-07-29T09:41:50.302Z,63.37
2022-07-29T09:43:59.465Z,63.27
2022-07-29T09:46:12.505Z,63.25
2022-07-29T09:48:18.278Z,63.32
2022-07-29T09:50:24.933Z,63.97
2022-07-29T09:52:29.687Z,64.72
2022-07-29T09:54:37.652Z,64.78
2022-07-29T09:56:44.412Z,64.34
2022-07-29T09:58:47.937Z,64.86
2022-07-29T10:00:54.674Z,64.57
2022-07-29T10:03:03.764Z,64.54
2022-07-29T10:05:17.810Z,64.57
2022-07-29T10:07:21.394Z,64.46
2022-07-29T10:09:25.493Z,65.22
2022-07-29T10:11:48.428Z,65.60
2022-07-29T10:13:52.632Z,65.04
2022-07-29T10:15:57.620Z,64.68
2022-07-29T10:18:02.117Z,64.42
2022-07-29T10:20:06.917Z,65.22
2022-07-29T10:22:31.090Z,64.61
2022-07-29T10:24:40.796Z,64.56
2022-07-29T10:26:45.660Z,63.57
2022-07-29T10:28:49.216Z,64.07
2022-07-29T10:30:54.920Z,64.02
2022-07-29T10:33:30.837Z,63.82
2022-07-29T10:35:47.033Z,63.90
2022-07-29T10:38:31.144Z,63.31
2022-07-29T10:41:00.382Z,62.76
2022-07-29T10:43:18.513Z,63.16
2022-07-29T10:45:24.915Z,62.93
2022-07-29T10:47:29.238Z,63.34
2022-07-29T10:49:34.359Z,62.48
2022-07-29T10:52:07.244Z,61.30
2022-07-29T10:54:10.994Z,60.24
2022-07-29T10:56:26.964Z,59.98
2022-07-29T10:58:30.548Z,59.36
2022-07-29T11:00:34.878Z,59.97
2022-07-29T11:02:53.028Z,58.71
2022-07-29T11:05:06.987Z,58.06
2022-07-29T11:07:13.183Z,58.25
2022-07-29T11:09:34.970Z,56.61
2022-07-29T11:11:44.106Z,56.13
2022-07-29T11:13:56.080Z,55.67
2022-07-29T11:16:00.712Z,55.60
2022-07-29T11:18:15.120Z,54.78
2022-07-29T11:20:34.917Z,52.91
2022-07-29T11:22:45.860Z,51.08
2022-07-29T11:25:15.020Z,50.39
2022-07-29T11:27:23.098Z,50.19
2022-07-29T11:29:27.457Z,50.28
2022-07-29T11:31:37.706Z,50.11
2022-07-29T11:33:56.049Z,49.45
2022-07-29T11:36:16.902Z,49.19
2022-07-29T11:38:28.770Z,49.23
2022-07-29T11:40:32.686Z,48.09
2022-07-29T11:42:47.025Z,47.79
2022-07-29T11:44:57.857Z,47.26
2022-07-29T11:47:02.334Z,47.56
2022-07-29T11:51:32.964Z,47.68
2022-07-29T11:53:37.771Z,47.24
2022-07-29T11:55:50.888Z,47.23
2022-07-29T11:58:03.760Z,46.86
2022-07-29T12:00:12.349Z,47.12
2022-07-29T12:02:37.277Z,45.74
2022-07-29T12:04:51.198Z,45.95
2022-07-29T12:07:00.571Z,45.73
2022-07-29T12:09:11.286Z,45.71
2022-07-29T12:11:21.317Z,45.04
2022-07-29T12:13:37.030Z,44.46
2022-07-29T12:15:47.194Z,44.98
2022-07-29T12:17:50.997Z,43.77
2022-07-29T12:19:55.364Z,44.10
2022-07-29T12:22:01.118Z,43.60
2022-07-29T12:24:09.516Z,43.90
2022-07-29T12:26:25.559Z,43.90
2022-07-29T12:28:29.517Z,43.96
2022-07-29T12:30:41.604Z,43.69
2022-07-29T12:32:49.703Z,43.73
2022-07-29T12:34:53.572Z,43.47
2022-07-29T12:36:57.622Z,42.47
2022-07-29T12:39:02.759Z,42.15
2022-07-29T12:41:06.476Z,41.13
2022-07-29T12:43:11.396Z,40.17
2022-07-29T12:45:14.849Z,39.81
2022-07-29T12:47:20.801Z,40.17
2022-07-29T12:49:24.790Z,40.41
2022-07-29T12:51:32.942Z,40.28
2022-07-29T12:53:37.431Z,39.81
2022-07-29T12:55:44.275Z,39.56
2022-07-29T12:57:48.948Z,38.90
2022-07-29T13:00:17.573Z,38.23
2022-07-29T13:02:24.699Z,38.26
2022-07-29T13:04:29.428Z,38.01
2022-07-29T13:06:39.050Z,37.37
2022-07-29T13:09:01.238Z,37.68
2022-07-29T13:11:06.693Z,37.66
2022-07-29T13:13:11.966Z,38.00
2022-07-29T13:15:17.137Z,37.60
2022-07-29T13:17:23.853Z,37.61
2022-07-29T13:19:36.575Z,37.22
2022-07-29T13:21:41.051Z,37.41
2022-07-29T13:23:44.544Z,36.94
2022-07-29T13:25:48.138Z,38.40
2022-07-29T13:27:55.287Z,39.38
2022-07-29T13:30:00.853Z,40.01
2022-07-29T13:32:04.899Z,40.33
2022-07-29T13:34:08.537Z,40.93
2022-07-29T13:36:12.116Z,40.52
2022-07-29T13:38:15.822Z,40.67
2022-07-29T13:40:19.330Z,39.69
2022-07-29T13:42:22.859Z,40.24
2022-07-29T13:44:27.907Z,39.68
2022-07-29T13:46:31.459Z,39.59
2022-07-29T13:48:35.163Z,39.08
2022-07-29T13:50:38.680Z,38.80
2022-07-29T13:52:42.262Z,38.86
2022-07-29T13:54:46.057Z,38.61
2022-07-29T13:56:49.797Z,38.41
2022-07-29T13:58:53.251Z,38.54
2022-07-29T14:00:58.240Z,38.84
2022-07-29T14:03:01.832Z,37.91
2022-07-29T14:05:08.545Z,37.70
2022-07-29T14:07:16.405Z,37.69
2022-07-29T14:09:20.294Z,38.31
2022-07-29T14:11:23.774Z,37.86
2022-07-29T14:13:27.398Z,38.45
2022-07-29T14:15:30.827Z,37.95
2022-07-29T14:17:35.841Z,37.43
2022-07-29T14:19:39.903Z,36.97
2022-07-29T14:21:43.435Z,36.35
2022-07-29T14:23:49.177Z,36.01
2022-07-29T14:25:54.367Z,35.58
2022-07-29T14:27:58.527Z,35.31
2022-07-29T14:30:02.160Z,35.67
2022-07-29T14:32:06.599Z,35.90
2022-07-29T14:34:12.147Z,35.77
2022-07-29T14:36:15.772Z,35.48
2022-07-29T14:38:19.935Z,35.40
2022-07-29T14:40:23.584Z,35.42
2022-07-29T14:42:27.104Z,35.52
2022-07-29T14:44:32.270Z,35.48
2022-07-29T14:46:35.981Z,35.66
2022-07-29T14:48:39.638Z,35.44
2022-07-29T14:50:46.061Z,35.44
2022-07-29T14:52:49.566Z,35.06
2022-07-29T14:54:53.237Z,35.32
2022-07-29T14:56:58.339Z,35.25
2022-07-29T14:59:02.270Z,34.45
2022-07-29T15:01:06.919Z,34.92
2022-07-29T15:03:11.554Z,34.62
2022-07-29T15:05:15.309Z,34.76
2022-07-29T15:07:20.154Z,34.60
2022-07-29T15:09:23.717Z,34.96
2022-07-29T15:11:27.343Z,33.46
2022-07-29T15:13:30.840Z,32.91
2022-07-29T15:15:34.458Z,33.07
2022-07-29T15:17:38.167Z,32.97
2022-07-29T15:19:44.979Z,32.73
2022-07-29T15:21:49.220Z,32.71
2022-07-29T15:23:54.238Z,32.46
2022-07-29T15:25:57.819Z,33.13
2022-07-29T15:28:03.837Z,32.67
2022-07-29T15:30:08.407Z,32.54
2022-07-29T15:32:12.244Z,32.96
2022-07-29T15:34:15.945Z,32.42
2022-07-29T15:36:50.122Z,33.46
2022-07-29T15:38:43.008Z,33.90
2022-07-29T15:40:47.909Z,34.21
2022-07-29T15:42:51.493Z,34.76
2022-07-29T15:44:56.233Z,34.58
2022-07-29T15:47:05.771Z,34.22
2022-07-29T15:49:09.562Z,33.87
2022-07-29T15:51:13.194Z,33.09
2022-07-29T15:53:16.776Z,32.60
2022-07-29T15:55:21.180Z,32.68
2022-07-29T15:57:26.595Z,33.14
2022-07-29T15:59:30.654Z,32.84
2022-07-29T16:01:34.281Z,33.27
2022-07-29T16:03:37.892Z,32.46
2022-07-29T16:05:42.068Z,32.24
2022-07-29T16:07:45.583Z,32.18
2022-07-29T16:09:53.049Z,32.44
2022-07-29T16:11:57.071Z,32.19
2022-07-29T16:14:02.310Z,32.00
2022-07-29T16:16:06.387Z,32.55
2022-07-29T16:18:10.207Z,32.81
2022-07-29T16:20:14.081Z,32.34
2022-07-29T16:22:17.693Z,32.77
2022-07-29T16:24:21.171Z,32.26
2022-07-29T16:26:24.714Z,32.18
2022-07-29T16:28:28.336Z,32.67
2022-07-29T16:30:33.331Z,32.62
2022-07-29T16:32:36.853Z,32.29
2022-07-29T16:34:41.519Z,32.33
2022-07-29T16:36:47.874Z,32.13
2022-07-29T16:38:51.839Z,32.46
2022-07-29T16:40:55.315Z,32.77
2022-07-29T16:42:58.914Z,33.10
2022-07-29T16:45:02.852Z,33.41
2022-07-29T16:47:08.483Z,32.99
2022-07-29T16:49:15.045Z,33.00
2022-07-29T16:51:23.211Z,32.56
2022-07-29T16:53:30.008Z,32.77
2022-07-29T16:55:33.759Z,32.82
2022-07-29T16:57:37.437Z,31.65
2022-07-29T16:59:43.366Z,31.97
2022-07-29T17:01:47.494Z,31.32
2022-07-29T17:04:06.261Z,31.35
2022-07-29T17:06:09.864Z,31.57
2022-07-29T17:08:13.636Z,31.83
2022-07-29T17:10:17.388Z,31.66
2022-07-29T17:12:20.838Z,31.86
2022-07-29T17:14:25.878Z,32.59
2022-07-29T17:16:30.202Z,31.62
2022-07-29T17:18:33.673Z,32.37
2022-07-29T17:20:38.575Z,32.86
2022-07-29T17:22:42.963Z,32.85
2022-07-29T17:24:46.572Z,32.27
2022-07-29T17:26:50.787Z,32.89
2022-07-29T17:28:54.281Z,33.35
2022-07-29T17:30:58.056Z,32.92
2022-07-29T17:33:02.015Z,32.54
2022-07-29T17:35:27.689Z,32.63
2022-07-29T17:37:31.651Z,33.79
2022-07-29T17:39:36.092Z,33.41
2022-07-29T17:41:40.880Z,33.54
2022-07-29T17:43:44.404Z,33.75
2022-07-29T17:45:49.406Z,33.54
2022-07-29T17:47:54.111Z,33.68
2022-07-29T17:49:57.639Z,33.94
2022-07-29T17:52:01.353Z,34.03
2022-07-29T17:54:06.470Z,34.61
2022-07-29T17:56:10.117Z,34.93
2022-07-29T17:58:14.135Z,35.37
2022-07-29T18:00:17.976Z,35.06
2022-07-29T18:02:21.633Z,36.34
2022-07-29T18:04:25.439Z,36.22
2022-07-29T18:06:28.976Z,36.80
2022-07-29T18:08:32.487Z,36.68
2022-07-29T18:10:37.904Z,37.08
2022-07-29T18:12:41.572Z,37.30
2022-07-29T18:14:45.027Z,36.98
2022-07-29T18:16:48.688Z,38.04
2022-07-29T18:18:52.270Z,38.09
2022-07-29T18:20:55.881Z,38.53
2022-07-29T18:22:59.481Z,38.21
2022-07-29T18:25:03.402Z,38.99
2022-07-29T18:27:08.403Z,39.28
2022-07-29T18:29:12.344Z,39.54
2022-07-29T18:31:15.983Z,39.15
2022-07-29T18:33:22.365Z,39.98
2022-07-29T18:35:26.373Z,39.32
2022-07-29T18:38:02.311Z,39.29
2022-07-29T18:39:55.137Z,39.18
2022-07-29T18:42:01.594Z,39.86
2022-07-29T18:44:06.795Z,39.89
2022-07-29T18:46:10.819Z,39.89
2022-07-29T18:48:16.899Z,39.85
2022-07-29T18:50:20.611Z,40.29
2022-07-29T18:52:24.127Z,39.72
2022-07-29T18:54:30.656Z,40.02
2022-07-29T18:56:34.204Z,40.11
2022-07-29T18:58:38.868Z,41.34
2022-07-29T19:00:43.853Z,42.39
2022-07-29T19:02:47.605Z,42.90
2022-07-29T19:04:51.503Z,41.72
2022-07-29T19:06:55.071Z,41.88
2022-07-29T19:08:58.596Z,41.68
2022-07-29T19:11:02.195Z,42.91
2022-07-29T19:13:06.164Z,42.61
2022-07-29T19:15:11.388Z,40.96
2022-07-29T19:17:16.269Z,42.88
2022-07-29T19:19:19.765Z,43.15
2022-07-29T19:21:24.046Z,41.73
2022-07-29T19:23:27.636Z,42.08
2022-07-29T19:25:31.285Z,42.31
2022-07-29T19:27:39.234Z,43.99
2022-07-29T19:29:42.779Z,43.87
2022-07-29T19:31:46.378Z,43.10
2022-07-29T19:33:51.371Z,43.60
2022-07-29T19:35:55.207Z,42.43
2022-07-29T19:38:01.005Z,41.80
2022-07-29T19:40:05.232Z,42.01
2022-07-29T19:42:10.158Z,41.37
2022-07-29T19:44:13.832Z,41.50
2022-07-29T19:46:17.366Z,41.60
2022-07-29T19:48:20.928Z,41.88
2022-07-29T19:50:26.099Z,41.71
2022-07-29T19:52:29.862Z,42.55
2022-07-29T19:54:33.321Z,42.29
2022-07-29T19:56:39.961Z,42.61
2022-07-29T19:58:45.731Z,42.41
2022-07-29T20:00:49.645Z,42.42
2022-07-29T20:02:53.369Z,42.60
2022-07-29T20:04:56.921Z,43.04
2022-07-29T20:07:02.194Z,43.13
2022-07-29T20:09:06.529Z,43.26
2022-07-29T20:11:10.212Z,43.41
2022-07-29T20:13:13.913Z,43.48
2022-07-29T20:15:17.536Z,43.67
2022-07-29T20:17:22.317Z,43.94
2022-07-29T20:19:25.921Z,44.37
2022-07-29T20:21:29.565Z,44.32
2022-07-29T20:23:34.488Z,44.82
2022-07-29T20:25:38.341Z,45.56
2022-07-29T20:27:42.766Z,45.57
2022-07-29T20:29:46.308Z,45.64
2022-07-29T20:31:53.464Z,46.14
2022-07-29T20:34:00.378Z,46.30
2022-07-29T20:36:03.998Z,46.22
2022-07-29T20:38:07.537Z,46.13
2022-07-29T20:40:13.185Z,46.57
2022-07-29T20:42:16.828Z,46.42
2022-07-29T20:44:20.379Z,46.56
2022-07-29T20:46:23.950Z,46.53
2022-07-29T20:48:27.713Z,46.80
2022-07-29T20:50:31.320Z,46.62
2022-07-29T20:52:34.881Z,46.83
2022-07-29T20:54:38.431Z,46.80
2022-07-29T20:56:43.895Z,46.79
2022-07-29T20:58:47.403Z,46.89
2022-07-29T21:00:51.545Z,46.89
2022-07-29T21:02:55.370Z,46.94
2022-07-29T21:04:58.993Z,46.63
2022-07-29T21:07:02.911Z,47.32
2022-07-29T21:09:06.648Z,47.19
2022-07-29T21:11:10.856Z,47.08
2022-07-29T21:13:16.593Z,47.14
2022-07-29T21:15:21.525Z,46.83
2022-07-29T21:17:25.217Z,47.61
2022-07-29T21:19:28.808Z,47.85
2022-07-29T21:21:32.314Z,48.21
2022-07-29T21:23:36.581Z,48.42
2022-07-29T21:25:40.033Z,48.73
2022-07-29T21:28:01.046Z,49.02
2022-07-29T21:30:07.298Z,49.08
2022-07-29T21:32:11.029Z,48.94
2022-07-29T21:34:15.496Z,49.08
2022-07-29T21:36:47.288Z,49.32
2022-07-29T21:38:42.468Z,49.36
2022-07-29T21:40:47.319Z,49.59
2022-07-29T21:42:50.857Z,49.61
2022-07-29T21:44:54.397Z,49.82
2022-07-29T21:46:59.574Z,50.21
2022-07-29T21:49:03.118Z,50.18
2022-07-29T21:51:06.787Z,50.11
2022-07-29T21:53:11.080Z,49.96
2022-07-29T21:55:18.580Z,50.25
2022-07-29T21:57:22.968Z,50.91
2022-07-29T21:59:26.711Z,50.95
2022-07-29T22:01:39.078Z,51.10
2022-07-29T22:03:44.519Z,51.37
2022-07-29T22:05:48.044Z,51.26
2022-07-29T22:07:56.563Z,51.00
2022-07-29T22:10:00.613Z,50.81
2022-07-29T22:12:04.270Z,51.52
2022-07-29T22:14:08.127Z,51.12
2022-07-29T22:16:14.836Z,51.08
2022-07-29T22:18:20.399Z,52.20
2022-07-29T22:20:26.325Z,52.94
2022-07-29T22:22:30.023Z,53.36
2022-07-29T22:24:33.629Z,53.05
2022-07-29T22:26:37.384Z,53.89
2022-07-29T22:28:40.981Z,54.24
2022-07-29T22:30:44.513Z,54.31
2022-07-29T22:32:49.619Z,53.69
2022-07-29T22:34:53.107Z,54.06
2022-07-29T22:36:58.499Z,54.20
2022-07-29T22:39:02.156Z,54.48
2022-07-29T22:41:05.775Z,54.27
2022-07-29T22:43:09.423Z,53.96
2022-07-29T22:45:13.910Z,52.96
2022-07-29T22:47:17.623Z,53.69
2022-07-29T22:49:41.217Z,53.64
2022-07-29T22:51:44.766Z,54.43
2022-07-29T22:53:49.674Z,54.68
2022-07-29T22:55:53.134Z,54.54
2022-07-29T22:57:56.701Z,53.66
2022-07-29T23:00:01.656Z,53.63
2022-07-29T23:02:05.183Z,54.04
2022-07-29T23:04:08.813Z,54.13
2022-07-29T23:06:12.375Z,53.71
2022-07-29T23:08:16.128Z,53.56
2022-07-29T23:10:22.502Z,53.69
2022-07-29T23:12:25.949Z,53.63
2022-07-29T23:14:29.428Z,53.93
2022-07-29T23:16:33.252Z,53.60
2022-07-29T23:18:38.567Z,54.32
2022-07-29T23:20:43.118Z,53.42
2022-07-29T23:22:46.743Z,54.44
2022-07-29T23:24:50.231Z,55.40
2022-07-29T23:26:55.183Z,55.86
2022-07-29T23:28:58.827Z,56.54
2022-07-29T23:31:02.413Z,56.00
2022-07-29T23:33:06.062Z,55.47
2022-07-29T23:35:10.572Z,55.76
2022-07-29T23:37:14.691Z,56.45
2022-07-29T23:39:18.179Z,57.02
2022-07-29T23:41:21.692Z,56.72
2022-07-29T23:43:26.743Z,56.84
2022-07-29T23:45:40.675Z,56.58
2022-07-29T23:47:48.802Z,56.89
2022-07-29T23:49:52.288Z,57.17
2022-07-29T23:51:55.796Z,56.96
2022-07-29T23:53:59.928Z,56.78
2022-07-29T23:56:03.404Z,56.35
2022-07-29T23:58:06.889Z,56.29
